Time;durP1;ratioP1;P1;durP2;ratioP2;P2;SDS_P1;SDS_P2;PMS_P1;PMS_P2;Temp;Humidity;BMP_temperature;BMP_pressure;BME280_temperature;BME280_humidity;BME280_pressure;Samples;Min_cycle;Max_cycle;Signal;HPM_P1;HPM_P2
2021/08/20 00:01:40;;;;;;;0.40;0.20;;;17.60;99.90;;;;;;5088679;28;20873;-78
2021/08/20 00:04:07;;;;;;;0.40;0.30;;;17.70;99.90;;;;;;5092374;28;20389;-77
2021/08/20 00:06:33;;;;;;;0.40;0.20;;;17.70;99.90;;;;;;5092568;28;20417;-78
2021/08/20 00:08:59;;;;;;;0.40;0.30;;;17.60;99.90;;;;;;5093514;28;20378;-77
2021/08/20 00:11:25;;;;;;;0.40;0.20;;;17.60;99.90;;;;;;5091472;28;20383;-84
2021/08/20 00:13:50;;;;;;;0.40;0.30;;;17.60;99.90;;;;;;5091994;28;20421;-78
2021/08/20 00:16:16;;;;;;;0.40;0.20;;;17.60;99.90;;;;;;5086395;28;20871;-77
2021/08/20 00:18:42;;;;;;;0.40;0.30;;;17.60;99.90;;;;;;5072238;28;20460;-77
2021/08/20 00:21:11;;;;;;;0.40;0.20;;;17.50;99.90;;;;;;5077896;28;20410;-77
2021/08/20 00:23:37;;;;;;;0.40;0.20;;;17.40;99.90;;;;;;5092538;28;20386;-78
2021/08/20 00:26:03;;;;;;;0.40;0.30;;;17.50;99.90;;;;;;5093105;28;20410;-77
2021/08/20 00:28:29;;;;;;;0.40;0.20;;;17.50;99.90;;;;;;5092602;28;20378;-80
2021/08/20 00:30:55;;;;;;;0.40;0.30;;;17.50;99.90;;;;;;5093200;28;20590;-77
2021/08/20 00:33:21;;;;;;;0.40;0.20;;;17.40;99.90;;;;;;5092749;28;20381;-77
2021/08/20 00:35:46;;;;;;;0.40;0.30;;;17.40;99.90;;;;;;5092101;28;20378;-77
2021/08/20 00:38:12;;;;;;;0.40;0.30;;;17.40;99.90;;;;;;5092697;28;20473;-77
2021/08/20 00:40:38;;;;;;;0.40;0.20;;;17.40;99.90;;;;;;5091701;28;20385;-77
2021/08/20 00:43:08;;;;;;;0.40;0.30;;;17.40;99.90;;;;;;5092784;28;20761;-77
2021/08/20 00:45:35;;;;;;;0.40;0.30;;;17.40;99.90;;;;;;5073605;28;20406;-77
2021/08/20 00:48:01;;;;;;;0.40;0.30;;;17.30;99.90;;;;;;5074476;28;20378;-77
2021/08/20 00:50:27;;;;;;;0.40;0.30;;;17.30;99.90;;;;;;5091989;28;20385;-85
2021/08/20 00:52:53;;;;;;;0.40;0.30;;;17.40;99.90;;;;;;5074595;28;20393;-77
2021/08/20 00:55:20;;;;;;;0.40;0.20;;;17.40;99.90;;;;;;5092565;28;20386;-78
2021/08/20 00:57:48;;;;;;;0.40;0.30;;;17.40;99.90;;;;;;5091803;28;20405;-78
2021/08/20 01:00:17;;;;;;;0.40;0.20;;;17.40;99.90;;;;;;5074261;28;20465;-78
2021/08/20 01:02:45;;;;;;;0.40;0.30;;;17.30;99.90;;;;;;5073394;28;20382;-77
2021/08/20 01:05:11;;;;;;;0.40;0.30;;;17.30;99.90;;;;;;5092231;28;20449;-79
2021/08/20 01:07:38;;;;;;;0.40;0.20;;;17.30;99.90;;;;;;5073418;28;20378;-78
2021/08/20 01:10:05;;;;;;;0.40;0.20;;;17.30;99.90;;;;;;5074581;28;20401;-78
2021/08/20 01:12:31;;;;;;;0.40;0.30;;;17.40;99.90;;;;;;5091315;28;20726;-80
2021/08/20 01:14:57;;;;;;;0.40;0.20;;;17.40;99.90;;;;;;5091339;28;20397;-78
2021/08/20 01:17:23;;;;;;;0.40;0.30;;;17.40;99.90;;;;;;5108937;28;20429;-78
2021/08/20 01:19:48;;;;;;;0.40;0.30;;;17.30;99.90;;;;;;5093294;28;20448;-78
2021/08/20 01:22:14;;;;;;;0.40;0.20;;;17.30;99.90;;;;;;5112177;28;20468;-78
2021/08/20 01:24:43;;;;;;;0.40;0.30;;;17.20;99.90;;;;;;5111513;28;20391;-78
2021/08/20 01:27:08;;;;;;;0.40;0.20;;;17.20;99.90;;;;;;5111840;28;20427;-78
2021/08/20 01:29:34;;;;;;;0.40;0.30;;;17.20;99.90;;;;;;5111556;28;20377;-78
2021/08/20 01:32:00;;;;;;;0.40;0.20;;;17.20;99.90;;;;;;5112108;28;20384;-77
2021/08/20 01:34:25;;;;;;;0.40;0.20;;;17.20;99.90;;;;;;5112002;28;20712;-78
2021/08/20 01:36:51;;;;;;;0.40;0.30;;;17.20;99.90;;;;;;5111203;28;20444;-78
2021/08/20 01:39:17;;;;;;;0.40;0.20;;;17.20;99.90;;;;;;5112060;28;20804;-78
2021/08/20 01:41:42;;;;;;;0.40;0.30;;;17.10;99.90;;;;;;5111140;28;20373;-78
2021/08/20 01:44:08;;;;;;;0.40;0.30;;;17.10;99.90;;;;;;5112111;28;20379;-78
2021/08/20 01:46:34;;;;;;;0.40;0.30;;;17.10;99.90;;;;;;5111235;28;20404;-78
2021/08/20 01:49:01;;;;;;;0.40;0.30;;;17.00;99.90;;;;;;5111927;28;20733;-78
2021/08/20 01:51:28;;;;;;;0.40;0.30;;;17.10;99.90;;;;;;5111548;28;20380;-78
2021/08/20 01:53:55;;;;;;;0.40;0.20;;;17.10;99.90;;;;;;5092969;28;20383;-76
2021/08/20 01:56:26;;;;;;;0.40;0.30;;;17.00;99.90;;;;;;5111423;28;20388;-76
2021/08/20 01:58:53;;;;;;;0.40;0.20;;;17.10;99.90;;;;;;5111216;28;20473;-76
2021/08/20 02:01:19;;;;;;;0.40;0.30;;;17.00;99.90;;;;;;5111503;28;20467;-75
2021/08/20 02:03:45;;;;;;;0.40;0.20;;;16.90;99.90;;;;;;5110528;28;20372;-75
2021/08/20 02:06:11;;;;;;;0.40;0.30;;;16.90;99.90;;;;;;5093062;28;20922;-75
2021/08/20 02:08:37;;;;;;;0.40;0.28;;;16.80;99.90;;;;;;5110478;28;20384;-76
2021/08/20 02:11:03;;;;;;;0.40;0.30;;;16.70;99.90;;;;;;5111437;28;20441;-76
2021/08/20 02:13:29;;;;;;;0.40;0.20;;;16.90;99.90;;;;;;5093230;28;20380;-75
2021/08/20 02:15:55;;;;;;;0.40;0.20;;;16.90;99.90;;;;;;5106184;28;20390;-75
2021/08/20 02:18:21;;;;;;;0.40;0.30;;;16.80;99.90;;;;;;5090557;28;20386;-75
2021/08/20 02:20:46;;;;;;;0.40;0.30;;;16.80;99.90;;;;;;5089784;28;20462;-76
2021/08/20 02:23:12;;;;;;;0.40;0.20;;;16.70;99.90;;;;;;5072659;28;20722;-78
2021/08/20 02:25:38;;;;;;;0.40;0.20;;;16.70;99.90;;;;;;5089374;28;20886;-78
2021/08/20 02:28:04;;;;;;;0.40;0.20;;;16.70;99.90;;;;;;5090751;28;20492;-78
2021/08/20 02:30:30;;;;;;;0.40;0.20;;;16.60;99.90;;;;;;5090515;28;20378;-84
2021/08/20 02:32:56;;;;;;;0.40;0.20;;;16.70;99.90;;;;;;5090191;28;20407;-77
2021/08/20 02:35:24;;;;;;;0.40;0.30;;;16.60;99.90;;;;;;5090780;28;20440;-77
2021/08/20 02:37:50;;;;;;;0.40;0.20;;;16.60;99.90;;;;;;5089770;28;20413;-77
2021/08/20 02:40:15;;;;;;;0.40;0.20;;;16.60;99.90;;;;;;5072983;28;20381;-78
2021/08/20 02:42:41;;;;;;;0.40;0.20;;;16.60;99.90;;;;;;5089850;28;20757;-78
2021/08/20 02:45:07;;;;;;;0.40;0.20;;;16.50;99.90;;;;;;5090504;28;20370;-78
2021/08/20 02:47:33;;;;;;;0.40;0.30;;;16.50;99.90;;;;;;5090017;28;20378;-85
2021/08/20 02:49:59;;;;;;;0.40;0.20;;;16.50;99.90;;;;;;5090346;28;20381;-78
2021/08/20 02:52:25;;;;;;;0.40;0.30;;;16.40;99.90;;;;;;5090559;28;20846;-78
2021/08/20 02:54:50;;;;;;;0.40;0.20;;;16.50;99.90;;;;;;5089620;28;20379;-78
2021/08/20 02:57:16;;;;;;;0.40;0.20;;;16.40;99.90;;;;;;5090417;28;20432;-78
2021/08/20 02:59:42;;;;;;;0.40;0.25;;;16.40;99.90;;;;;;5089663;28;20792;-78
2021/08/20 03:02:07;;;;;;;0.40;0.30;;;16.40;99.90;;;;;;5072382;28;20500;-77
2021/08/20 03:04:33;;;;;;;0.40;0.20;;;16.40;99.90;;;;;;5090104;28;20378;-81
2021/08/20 03:06:59;;;;;;;0.40;0.30;;;16.30;99.90;;;;;;5089838;28;20882;-75
2021/08/20 03:09:24;;;;;;;0.40;0.20;;;16.30;99.90;;;;;;5090073;28;20819;-75
2021/08/20 03:11:50;;;;;;;0.40;0.30;;;16.40;99.90;;;;;;5071320;28;20397;-76
2021/08/20 03:14:16;;;;;;;0.40;0.20;;;16.50;99.90;;;;;;5090384;28;20370;-76
2021/08/20 03:16:42;;;;;;;0.40;0.30;;;16.50;99.90;;;;;;5100250;28;20391;-77
2021/08/20 03:19:09;;;;;;;0.40;0.30;;;16.40;99.90;;;;;;5110211;28;20814;-76
2021/08/20 03:21:35;;;;;;;0.40;0.20;;;16.40;99.90;;;;;;5109913;28;20407;-81
2021/08/20 03:24:01;;;;;;;0.40;0.20;;;16.30;99.90;;;;;;5110124;28;20380;-76
2021/08/20 03:26:27;;;;;;;0.40;0.30;;;16.30;99.90;;;;;;5110204;28;20708;-77
2021/08/20 03:28:53;;;;;;;0.40;0.20;;;16.40;99.90;;;;;;5109598;28;20468;-76
2021/08/20 03:31:20;;;;;;;0.40;0.30;;;16.40;99.90;;;;;;5110466;28;20398;-76
2021/08/20 03:33:46;;;;;;;0.40;0.20;;;16.40;99.90;;;;;;5091324;28;20873;-76
2021/08/20 03:36:12;;;;;;;0.40;0.30;;;16.30;99.90;;;;;;5110476;28;20455;-76
2021/08/20 03:38:38;;;;;;;0.40;0.20;;;16.20;99.90;;;;;;5111527;28;20463;-83
2021/08/20 03:41:03;;;;;;;0.40;0.30;;;16.20;99.90;;;;;;5113444;28;20774;-76
2021/08/20 03:43:29;;;;;;;0.40;0.30;;;16.10;99.90;;;;;;5095781;28;20380;-76
2021/08/20 03:45:55;;;;;;;0.40;0.28;;;16.10;99.90;;;;;;5113400;28;21021;-76
2021/08/20 03:48:20;;;;;;;0.40;0.20;;;16.10;99.90;;;;;;5114132;28;20380;-76
2021/08/20 03:50:46;;;;;;;0.40;0.20;;;16.10;99.90;;;;;;5113179;28;20391;-76
2021/08/20 03:53:11;;;;;;;0.40;0.30;;;16.10;99.90;;;;;;5114252;28;20392;-76
2021/08/20 03:55:37;;;;;;;0.40;0.20;;;16.10;99.90;;;;;;5113293;28;20447;-83
2021/08/20 03:58:03;;;;;;;0.40;0.30;;;16.10;99.90;;;;;;5113599;28;20769;-76
2021/08/20 04:00:28;;;;;;;0.40;0.30;;;16.00;99.90;;;;;;5113744;28;20852;-76
2021/08/20 04:02:54;;;;;;;0.40;0.20;;;16.00;99.90;;;;;;5112614;28;20412;-76
2021/08/20 04:05:22;;;;;;;0.40;0.20;;;16.00;99.90;;;;;;5114241;28;20416;-76
2021/08/20 04:07:48;;;;;;;0.40;0.20;;;15.90;99.90;;;;;;5113031;28;20391;-76
2021/08/20 04:10:13;;;;;;;0.40;0.20;;;16.00;99.90;;;;;;5114057;28;20462;-76
2021/08/20 04:12:39;;;;;;;0.40;0.20;;;15.90;99.90;;;;;;5113328;28;20452;-82
2021/08/20 04:15:05;;;;;;;0.40;0.30;;;15.80;99.90;;;;;;5095787;28;20782;-76
2021/08/20 04:17:30;;;;;;;0.40;0.30;;;15.80;99.90;;;;;;5096207;28;20456;-76
2021/08/20 04:19:56;;;;;;;0.40;0.30;;;15.80;99.90;;;;;;5074734;28;20493;-76
2021/08/20 04:22:22;;;;;;;0.40;0.20;;;15.90;99.90;;;;;;5093047;28;20408;-76
2021/08/20 04:24:48;;;;;;;0.40;0.20;;;15.90;99.90;;;;;;5092889;28;20393;-78
2021/08/20 04:27:13;;;;;;;0.40;0.20;;;15.90;99.90;;;;;;5075084;28;20463;-77
2021/08/20 04:29:39;;;;;;;0.40;0.20;;;15.90;99.90;;;;;;5074950;28;20720;-83
2021/08/20 04:32:05;;;;;;;0.40;0.20;;;15.90;99.90;;;;;;5093195;28;20700;-76
2021/08/20 04:34:30;;;;;;;0.40;0.30;;;15.90;99.90;;;;;;5093124;28;20847;-76
2021/08/20 04:36:56;;;;;;;0.40;0.20;;;15.90;99.90;;;;;;5092568;28;20428;-77
2021/08/20 04:39:22;;;;;;;0.40;0.20;;;15.90;99.90;;;;;;5092946;28;20927;-76
2021/08/20 04:41:48;;;;;;;0.40;0.20;;;15.90;99.90;;;;;;5092246;28;20393;-77
2021/08/20 04:44:13;;;;;;;0.40;0.20;;;15.90;99.90;;;;;;5093154;28;20378;-76
2021/08/20 04:46:39;;;;;;;0.40;0.20;;;15.90;99.90;;;;;;5092919;28;20401;-82
2021/08/20 04:49:06;;;;;;;0.40;0.20;;;15.90;99.90;;;;;;5092423;28;20374;-76
2021/08/20 04:51:34;;;;;;;0.40;0.20;;;15.90;99.90;;;;;;5092962;28;20385;-76
2021/08/20 04:53:59;;;;;;;0.40;0.20;;;15.90;99.90;;;;;;5092172;28;20393;-77
2021/08/20 04:56:25;;;;;;;0.40;0.20;;;15.90;99.90;;;;;;5093059;28;20382;-77
2021/08/20 04:58:52;;;;;;;0.40;0.20;;;15.90;99.90;;;;;;5092075;28;20699;-77
2021/08/20 05:01:18;;;;;;;0.40;0.20;;;15.90;99.90;;;;;;5092413;28;20394;-76
2021/08/20 05:03:44;;;;;;;0.40;0.23;;;16.10;99.90;;;;;;5091831;28;20385;-78
2021/08/20 05:06:12;;;;;;;0.40;0.20;;;16.10;99.90;;;;;;5092476;28;20410;-76
2021/08/20 05:08:38;;;;;;;0.40;0.20;;;16.10;99.90;;;;;;5092692;28;20762;-77
2021/08/20 05:11:04;;;;;;;0.40;0.30;;;16.10;99.90;;;;;;5092063;28;20420;-76
2021/08/20 05:13:30;;;;;;;0.40;0.20;;;16.10;99.90;;;;;;5092599;28;20385;-76
2021/08/20 05:15:56;;;;;;;0.40;0.30;;;16.20;99.90;;;;;;5092057;28;20374;-76
2021/08/20 05:18:21;;;;;;;0.40;0.30;;;16.20;99.90;;;;;;5092799;28;20427;-76
2021/08/20 05:20:47;;;;;;;0.47;0.32;;;16.20;99.90;;;;;;5091377;28;20453;-77
2021/08/20 05:23:13;;;;;;;0.40;0.20;;;16.20;99.90;;;;;;5092204;28;20402;-77
2021/08/20 05:25:39;;;;;;;0.40;0.30;;;16.30;99.90;;;;;;5091912;28;20483;-76
2021/08/20 05:28:05;;;;;;;0.40;0.20;;;16.30;99.90;;;;;;5091519;28;20859;-77
2021/08/20 05:30:31;;;;;;;0.40;0.20;;;16.30;99.90;;;;;;5092799;28;20772;-76
2021/08/20 05:32:58;;;;;;;0.40;0.20;;;16.20;99.90;;;;;;5091566;28;20382;-76
2021/08/20 05:35:23;;;;;;;0.40;0.20;;;16.10;99.90;;;;;;5092100;28;20421;-76
2021/08/20 05:37:49;;;;;;;0.40;0.20;;;16.10;99.90;;;;;;5091534;28;20733;-77
2021/08/20 05:40:15;;;;;;;0.40;0.20;;;16.20;99.90;;;;;;5099744;28;20442;-77
2021/08/20 05:42:41;;;;;;;0.40;0.30;;;16.10;99.90;;;;;;5102816;28;20450;-76
2021/08/20 05:45:08;;;;;;;0.40;0.20;;;16.10;99.90;;;;;;5099776;28;20831;-77
2021/08/20 05:47:34;;;;;;;0.40;0.20;;;16.10;99.90;;;;;;5101303;28;20836;-77
2021/08/20 05:49:59;;;;;;;0.40;0.20;;;16.20;99.90;;;;;;5102639;28;20495;-77
2021/08/20 05:52:25;;;;;;;0.40;0.30;;;16.20;99.90;;;;;;5102448;28;20391;-77
2021/08/20 05:54:52;;;;;;;0.40;0.30;;;16.40;99.90;;;;;;5099454;28;20415;-82
2021/08/20 05:57:17;;;;;;;0.40;0.20;;;16.30;99.90;;;;;;5103672;28;20391;-77
2021/08/20 05:59:43;;;;;;;0.40;0.20;;;16.40;99.90;;;;;;5101002;28;20380;-83
2021/08/20 06:02:09;;;;;;;0.40;0.20;;;16.50;99.90;;;;;;5077680;28;20817;-77
2021/08/20 06:04:34;;;;;;;0.40;0.30;;;16.50;99.90;;;;;;5098925;28;20383;-77
2021/08/20 06:07:00;;;;;;;0.40;0.20;;;16.60;99.90;;;;;;5100856;28;20426;-77
2021/08/20 06:09:26;;;;;;;0.40;0.30;;;16.70;99.90;;;;;;5098420;28;20380;-77
2021/08/20 06:11:52;;;;;;;0.40;0.30;;;16.80;99.90;;;;;;5100786;28;20389;-83
2021/08/20 06:14:17;;;;;;;0.40;0.30;;;16.70;99.90;;;;;;5077860;28;20805;-77
2021/08/20 06:16:43;;;;;;;0.40;0.30;;;16.80;99.90;;;;;;5097514;28;20910;-84
2021/08/20 06:19:08;;;;;;;0.40;0.30;;;16.90;99.90;;;;;;5096389;28;20733;-78
2021/08/20 06:21:34;;;;;;;0.40;0.30;;;17.10;99.90;;;;;;5099859;28;20882;-79
2021/08/20 06:24:00;;;;;;;0.40;0.30;;;17.20;99.90;;;;;;5096451;28;20870;-77
2021/08/20 06:26:26;;;;;;;0.40;0.30;;;17.20;99.90;;;;;;5095020;28;20404;-77
2021/08/20 06:28:52;;;;;;;0.40;0.20;;;17.30;99.90;;;;;;5092974;28;20382;-80
2021/08/20 06:31:18;;;;;;;0.40;0.20;;;17.40;99.90;;;;;;5099867;28;20860;-78
2021/08/20 06:33:43;;;;;;;0.40;0.30;;;17.40;99.90;;;;;;5092564;28;20393;-78
2021/08/20 06:36:09;;;;;;;0.40;0.20;;;17.40;99.90;;;;;;5092939;28;20396;-78
2021/08/20 06:38:35;;;;;;;0.40;0.30;;;17.50;99.90;;;;;;5098953;28;20382;-79
2021/08/20 06:41:00;;;;;;;0.40;0.30;;;17.60;99.90;;;;;;5101445;28;20439;-79
2021/08/20 06:43:26;;;;;;;0.40;0.20;;;17.70;99.90;;;;;;5101878;28;20392;-77
2021/08/20 06:45:52;;;;;;;0.40;0.20;;;17.70;99.90;;;;;;5093050;28;20460;-78
2021/08/20 06:48:18;;;;;;;0.40;0.30;;;17.70;99.90;;;;;;5087065;28;20741;-77
2021/08/20 06:50:44;;;;;;;0.40;0.40;;;17.70;99.90;;;;;;5109837;28;20848;-80
2021/08/20 06:53:10;;;;;;;0.40;0.30;;;17.70;99.90;;;;;;5109818;28;20384;-80
2021/08/20 06:55:37;;;;;;;0.40;0.20;;;17.80;99.90;;;;;;5092179;28;20767;-78
2021/08/20 06:58:02;;;;;;;0.40;0.30;;;17.90;99.90;;;;;;5091465;28;20384;-77
2021/08/20 07:00:28;;;;;;;0.40;0.20;;;17.80;99.90;;;;;;5110961;28;20392;-78
2021/08/20 07:02:53;;;;;;;0.40;0.20;;;17.90;99.90;;;;;;5091146;28;20380;-77
2021/08/20 07:05:19;;;;;;;0.40;0.20;;;18.00;99.90;;;;;;5089700;28;20455;-77
2021/08/20 07:07:47;;;;;;;0.40;0.30;;;18.20;99.90;;;;;;5089959;28;20418;-83
2021/08/20 07:10:15;;;;;;;0.40;0.20;;;18.30;99.90;;;;;;5099752;28;20382;-79
2021/08/20 07:12:41;;;;;;;0.40;0.20;;;18.30;99.90;;;;;;5110323;28;20365;-79
2021/08/20 07:15:09;;;;;;;0.40;0.20;;;18.40;99.90;;;;;;5100104;28;20370;-78
2021/08/20 07:17:35;;;;;;;0.40;0.20;;;18.50;99.90;;;;;;5112474;28;20380;-77
2021/08/20 07:20:01;;;;;;;0.40;0.30;;;18.60;99.90;;;;;;5113196;28;20408;-76
2021/08/20 07:22:26;;;;;;;0.40;0.20;;;18.50;99.90;;;;;;5114046;28;20428;-77
2021/08/20 07:24:52;;;;;;;0.40;0.30;;;18.60;99.90;;;;;;5113419;28;20388;-76
2021/08/20 07:27:19;;;;;;;0.40;0.30;;;18.50;99.90;;;;;;5086425;28;20416;-78
2021/08/20 07:29:45;;;;;;;0.40;0.20;;;18.40;99.90;;;;;;5095473;28;20860;-76
2021/08/20 07:32:11;;;;;;;0.40;0.30;;;18.50;99.90;;;;;;5113478;28;21323;-78
2021/08/20 07:34:37;;;;;;;0.40;0.20;;;18.70;99.90;;;;;;5112077;28;20435;-76
2021/08/20 07:37:03;;;;;;;0.40;0.30;;;18.80;99.90;;;;;;5106413;28;20398;-78
2021/08/20 07:39:30;;;;;;;0.40;0.20;;;19.00;99.90;;;;;;5093252;28;20910;-77
2021/08/20 07:41:56;;;;;;;0.40;0.30;;;18.90;99.90;;;;;;5092494;28;20815;-76
2021/08/20 07:44:22;;;;;;;0.40;0.30;;;18.80;99.90;;;;;;5093769;28;20419;-76
2021/08/20 07:46:48;;;;;;;0.40;0.20;;;18.80;99.90;;;;;;5093718;28;20933;-78
2021/08/20 07:49:14;;;;;;;0.40;0.30;;;18.90;99.90;;;;;;5099606;28;20431;-76
2021/08/20 07:51:40;;;;;;;0.40;0.20;;;19.00;99.90;;;;;;5113985;28;20418;-74
2021/08/20 07:54:06;;;;;;;0.40;0.30;;;19.10;99.90;;;;;;5096311;28;20382;-76
2021/08/20 07:56:32;;;;;;;0.40;0.20;;;19.20;99.90;;;;;;5093932;28;20427;-76
2021/08/20 07:58:58;;;;;;;0.40;0.20;;;19.00;99.90;;;;;;5093121;28;20386;-76
2021/08/20 08:01:23;;;;;;;0.40;0.30;;;19.10;99.90;;;;;;5110432;28;20473;-76
2021/08/20 08:03:49;;;;;;;0.40;0.28;;;19.30;99.90;;;;;;5112844;28;20397;-76
2021/08/20 08:06:16;;;;;;;0.40;0.20;;;19.40;99.90;;;;;;5113466;28;20498;-77
2021/08/20 08:08:43;;;;;;;0.40;0.30;;;19.40;99.90;;;;;;5108365;28;20390;-77
2021/08/20 08:11:09;;;;;;;0.40;0.22;;;19.40;99.90;;;;;;5113130;28;20469;-77
2021/08/20 08:13:36;;;;;;;0.40;0.20;;;19.30;99.90;;;;;;5113851;28;20379;-77
2021/08/20 08:16:03;;;;;;;0.40;0.30;;;19.40;99.90;;;;;;5107083;28;20468;-75
2021/08/20 08:18:29;;;;;;;0.40;0.20;;;19.60;99.90;;;;;;5093783;28;20374;-76
2021/08/20 08:20:55;;;;;;;0.40;0.20;;;19.60;99.90;;;;;;5074215;28;20410;-81
2021/08/20 08:23:21;;;;;;;0.40;0.30;;;19.60;99.90;;;;;;5075526;28;20465;-77
2021/08/20 08:25:47;;;;;;;0.40;0.40;;;19.70;99.90;;;;;;5095592;28;20414;-77
2021/08/20 08:28:13;;;;;;;0.70;0.70;;;19.70;99.90;;;;;;5093093;28;20386;-78
2021/08/20 08:30:41;;;;;;;0.40;0.30;;;19.80;99.90;;;;;;5094206;28;20393;-75
2021/08/20 08:33:09;;;;;;;0.40;0.30;;;19.80;99.90;;;;;;5092463;28;20378;-77
2021/08/20 08:35:35;;;;;;;0.40;0.20;;;19.70;99.90;;;;;;5095011;28;20429;-77
2021/08/20 08:38:06;;;;;;;0.40;0.20;;;19.70;99.90;;;;;;5081200;28;20404;-76
2021/08/20 08:40:36;;;;;;;0.40;0.30;;;19.70;99.90;;;;;;5108908;28;20450;-75
2021/08/20 08:43:09;;;;;;;0.40;0.30;;;19.80;99.90;;;;;;5095248;28;20374;-75
2021/08/20 08:45:38;;;;;;;0.40;0.22;;;19.70;99.90;;;;;;5094011;28;20423;-78
2021/08/20 08:48:06;;;;;;;0.40;0.30;;;19.80;99.90;;;;;;5112375;28;20414;-77
2021/08/20 08:50:33;;;;;;;0.40;0.20;;;19.90;99.90;;;;;;5106572;28;20386;-78
2021/08/20 08:52:59;;;;;;;0.40;0.30;;;19.80;99.90;;;;;;5099528;28;21690;-79
2021/08/20 08:55:25;;;;;;;0.40;0.20;;;19.80;99.90;;;;;;5101479;28;20405;-81
2021/08/20 08:57:51;;;;;;;0.40;0.20;;;20.00;99.90;;;;;;5102476;28;20384;-78
2021/08/20 09:00:32;;;;;;;0.40;0.20;;;20.00;99.90;;;;;;5102127;28;20382;-76
2021/08/20 09:02:57;;;;;;;0.40;0.30;;;20.00;99.90;;;;;;5099677;28;20377;-81
2021/08/20 09:05:23;;;;;;;0.40;0.20;;;20.00;99.90;;;;;;5081777;28;21126;-82
2021/08/20 09:07:54;;;;;;;0.40;0.20;;;20.00;99.90;;;;;;5096982;28;20385;-86
2021/08/20 09:10:22;;;;;;;0.40;0.30;;;20.10;99.90;;;;;;5103807;28;20397;-79
2021/08/20 09:12:54;;;;;;;0.40;0.20;;;20.20;99.90;;;;;;5102454;28;20513;-80
2021/08/20 09:15:23;;;;;;;0.40;0.20;;;20.20;99.90;;;;;;5099743;28;20418;-78
2021/08/20 09:17:54;;;;;;;0.40;0.20;;;20.30;99.90;;;;;;5101003;28;20875;-78
2021/08/20 09:20:29;;;;;;;0.40;0.20;;;20.30;99.90;;;;;;5102139;28;20400;-81
2021/08/20 09:23:00;;;;;;;0.40;0.20;;;20.20;99.90;;;;;;5101302;28;20521;-83
2021/08/20 09:25:38;;;;;;;0.40;0.20;;;20.30;99.90;;;;;;5097728;28;20409;-82
2021/08/20 09:28:24;;;;;;;0.40;0.20;;;20.40;99.90;;;;;;5101536;28;20373;-79
2021/08/20 09:30:59;;;;;;;0.40;0.30;;;20.50;99.90;;;;;;5100499;28;20400;-80
2021/08/20 09:33:44;;;;;;;0.40;0.30;;;20.50;99.90;;;;;;5100128;28;20386;-79
2021/08/20 09:36:14;;;;;;;0.40;0.20;;;20.60;99.90;;;;;;5094680;28;20397;-79
2021/08/20 09:38:50;;;;;;;0.40;0.20;;;20.60;99.90;;;;;;5104280;28;20886;-79
2021/08/20 09:41:30;;;;;;;0.40;0.20;;;20.70;99.90;;;;;;5104595;28;20396;-79
2021/08/20 09:43:59;;;;;;;0.40;0.30;;;20.80;99.90;;;;;;5092205;28;20428;-84
2021/08/20 09:46:25;;;;;;;0.40;0.30;;;20.80;99.90;;;;;;5111779;28;20408;-78
2021/08/20 09:48:56;;;;;;;0.40;0.30;;;20.80;99.90;;;;;;5111802;28;20392;-78
2021/08/20 09:51:31;;;;;;;0.40;0.20;;;21.00;99.90;;;;;;5098384;28;20398;-79
2021/08/20 09:54:01;;;;;;;0.40;0.20;;;21.00;99.90;;;;;;5091568;28;20394;-84
2021/08/20 09:56:27;;;;;;;0.40;0.30;;;21.00;99.90;;;;;;5091916;28;20382;-78
2021/08/20 09:59:01;;;;;;;0.40;0.30;;;21.10;99.90;;;;;;5091367;28;20370;-79
2021/08/20 10:01:29;;;;;;;0.40;0.30;;;21.30;99.90;;;;;;5090514;28;20388;-77
2021/08/20 10:03:57;;;;;;;0.40;0.30;;;21.40;99.90;;;;;;5110198;28;20415;-82
2021/08/20 10:06:25;;;;;;;0.40;0.20;;;21.20;99.90;;;;;;5111548;28;20408;-76
2021/08/20 10:08:52;;;;;;;0.40;0.30;;;21.40;99.90;;;;;;5111974;28;20380;-76
2021/08/20 10:11:19;;;;;;;0.40;0.20;;;21.30;99.90;;;;;;5111259;28;20702;-77
2021/08/20 10:13:46;;;;;;;0.40;0.20;;;21.40;99.90;;;;;;5111000;28;20462;-75
2021/08/20 10:16:15;;;;;;;0.40;0.20;;;21.60;99.90;;;;;;5103933;28;20938;-75
2021/08/20 10:18:42;;;;;;;0.40;0.30;;;21.60;99.90;;;;;;5096583;28;20406;-75
2021/08/20 10:21:11;;;;;;;0.40;0.30;;;21.80;99.90;;;;;;5089977;28;20438;-76
2021/08/20 10:23:37;;;;;;;0.40;0.20;;;22.00;99.90;;;;;;5091055;28;20847;-74
2021/08/20 10:26:06;;;;;;;0.40;0.30;;;22.10;99.90;;;;;;5090057;28;20406;-75
2021/08/20 10:28:33;;;;;;;0.40;0.30;;;22.00;99.90;;;;;;5072998;28;20377;-74
2021/08/20 10:30:59;;;;;;;0.40;0.20;;;22.10;99.90;;;;;;5090597;28;20466;-79
2021/08/20 10:33:34;;;;;;;0.40;0.30;;;22.00;99.90;;;;;;5090736;28;20901;-75
2021/08/20 10:36:03;;;;;;;0.40;0.20;;;22.00;99.90;;;;;;5090747;28;20424;-81
2021/08/20 10:38:42;;;;;;;0.43;0.38;;;22.00;99.90;;;;;;5072959;28;21021;-75
2021/08/20 10:41:16;;;;;;;0.40;0.20;;;22.10;99.90;;;;;;5090355;28;20374;-77
2021/08/20 10:44:00;;;;;;;0.40;0.30;;;22.10;99.90;;;;;;5091015;28;20471;-75
2021/08/20 10:46:31;;;;;;;0.40;0.30;;;22.30;99.90;;;;;;5090647;28;20410;-73
2021/08/20 10:49:17;;;;;;;0.40;0.30;;;22.40;99.90;;;;;;5108031;28;20744;-75
2021/08/20 10:51:51;;;;;;;0.40;0.20;;;22.40;99.90;;;;;;5109953;28;20403;-76
2021/08/20 10:54:42;;;;;;;0.40;0.30;;;22.50;99.90;;;;;;5071928;28;20404;-77
2021/08/20 10:57:10;;;;;;;0.40;0.20;;;22.40;99.90;;;;;;5090379;28;20394;-76
2021/08/20 10:59:46;;;;;;;0.40;0.20;;;22.30;99.70;;;;;;5072868;28;20850;-75
2021/08/20 11:02:23;;;;;;;0.40;0.30;;;22.30;99.90;;;;;;5094505;28;20404;-76
2021/08/20 11:04:54;;;;;;;0.40;0.30;;;22.60;99.90;;;;;;5101267;28;20406;-76
2021/08/20 11:07:44;;;;;;;0.40;0.30;;;22.50;99.90;;;;;;5100111;28;20409;-76
2021/08/20 11:10:09;;;;;;;0.40;0.30;;;22.50;99.90;;;;;;5075681;28;20791;-76
2021/08/20 11:12:51;;;;;;;0.40;0.20;;;22.60;99.90;;;;;;5111030;28;20380;-75
2021/08/20 11:15:25;;;;;;;0.40;0.30;;;22.50;99.90;;;;;;5110353;28;20383;-76
2021/08/20 11:17:56;;;;;;;0.40;0.20;;;22.50;99.90;;;;;;5072616;28;20397;-75
2021/08/20 11:20:22;;;;;;;0.40;0.20;;;22.70;99.90;;;;;;5089450;28;21018;-75
2021/08/20 11:23:11;;;;;;;0.40;0.30;;;22.90;99.90;;;;;;5089918;28;20459;-75
2021/08/20 11:25:53;;;;;;;0.40;0.30;;;22.70;99.90;;;;;;5090849;28;20438;-75
2021/08/20 11:28:47;;;;;;;0.40;0.20;;;23.10;99.90;;;;;;5089906;28;20412;-75
2021/08/20 11:31:15;;;;;;;0.40;0.30;;;23.20;99.90;;;;;;5096778;28;20435;-75
2021/08/20 11:33:45;;;;;;;0.40;0.30;;;23.40;99.80;;;;;;5110814;28;20389;-76
2021/08/20 11:36:18;;;;;;;0.40;0.20;;;23.70;99.90;;;;;;5110218;28;20388;-75
2021/08/20 11:38:48;;;;;;;0.40;0.30;;;24.00;97.00;;;;;;5110737;28;20392;-75
2021/08/20 11:41:44;;;;;;;0.40;0.30;;;23.90;97.80;;;;;;5110211;28;20452;-75
2021/08/20 11:44:12;;;;;;;0.40;0.30;;;23.90;98.20;;;;;;5100567;28;20466;-76
2021/08/20 11:46:39;;;;;;;0.40;0.30;;;23.60;99.40;;;;;;5091895;28;20854;-76
2021/08/20 11:49:07;;;;;;;0.40;0.30;;;23.60;98.90;;;;;;5108660;28;20476;-79
2021/08/20 11:51:41;;;;;;;0.40;0.20;;;23.50;97.20;;;;;;5110803;28;20389;-76
2021/08/20 11:54:12;;;;;;;0.40;0.30;;;23.40;98.20;;;;;;5098826;28;20402;-77
2021/08/20 11:56:58;;;;;;;0.40;0.20;;;23.20;96.50;;;;;;5091299;28;20498;-79
2021/08/20 11:59:24;;;;;;;0.40;0.30;;;23.00;96.50;;;;;;5088943;28;20521;-76
2021/08/20 12:01:54;;;;;;;0.40;0.30;;;23.10;96.50;;;;;;5114516;28;20809;-78
2021/08/20 12:04:22;;;;;;;0.40;0.20;;;23.10;95.90;;;;;;5092572;28;20394;-76
2021/08/20 12:06:48;;;;;;;0.40;0.30;;;23.20;96.40;;;;;;5093973;28;20422;-77
2021/08/20 12:09:15;;;;;;;0.40;0.20;;;23.10;96.20;;;;;;5094945;28;20886;-78
2021/08/20 12:11:43;;;;;;;0.40;0.30;;;23.00;96.00;;;;;;5096173;28;20775;-77
2021/08/20 12:14:20;;;;;;;0.40;0.20;;;23.00;97.30;;;;;;5094519;28;20396;-76
2021/08/20 12:16:48;;;;;;;0.40;0.20;;;23.20;98.10;;;;;;5103301;28;20412;-78
2021/08/20 12:19:24;;;;;;;0.40;0.20;;;23.30;94.50;;;;;;5093150;28;20436;-77
2021/08/20 12:22:07;;;;;;;0.40;0.20;;;23.40;95.60;;;;;;5071969;28;20895;-76
2021/08/20 12:24:38;;;;;;;0.40;0.20;;;23.70;94.10;;;;;;5073424;28;20693;-77
2021/08/20 12:27:10;;;;;;;0.40;0.20;;;23.50;94.40;;;;;;5072105;28;20442;-77
2021/08/20 12:29:35;;;;;;;0.40;0.20;;;23.60;92.90;;;;;;5073342;28;20430;-78
2021/08/20 12:32:01;;;;;;;0.40;0.20;;;23.80;92.70;;;;;;5073100;28;20375;-78
2021/08/20 12:34:32;;;;;;;0.40;0.20;;;24.50;92.40;;;;;;5071274;28;20465;-79
2021/08/20 12:37:00;;;;;;;0.40;0.20;;;25.10;91.60;;;;;;5073350;28;20380;-78
2021/08/20 12:39:40;;;;;;;0.40;0.20;;;25.10;88.80;;;;;;5072983;28;20989;-78
2021/08/20 12:42:25;;;;;;;0.40;0.20;;;24.90;88.50;;;;;;5072936;28;20419;-78
2021/08/20 12:45:21;;;;;;;0.40;0.30;;;25.20;85.00;;;;;;5073339;28;20478;-77
2021/08/20 12:48:02;;;;;;;0.40;0.30;;;25.00;88.30;;;;;;5067910;28;20451;-77
2021/08/20 12:50:28;;;;;;;0.40;0.20;;;25.60;90.90;;;;;;5072287;28;20395;-78
2021/08/20 12:53:08;;;;;;;0.40;0.30;;;25.40;85.40;;;;;;5073094;28;20432;-76